Bradford, Iowa
Current Conditions -  °F | °C
As of 12:35 PM on Sunday 21 Dec 2014 (Local Time) from KIFA Reporting Station
Overcast Overcast  
Wind Chill: 27°   Ceiling: 800
Heat Index: 38°   Visibility: 7mi
Dew Point: 35°   Wind: 22mph
Humidity: 89%   Direction: 170°S
Pressure: 29.84"   Gusts: 29mph
Location:  42.63°N, 93.25°W
Report Text: KIFA 211835Z AUTO 17019G25KT 7SM OVC008 03/02 A2984 RMK AO2 T00320015
Loading
Personal Weather Stations






























Interactive Weather Map New forecast layout! Learn more

10-Day Weather Forecast

Advertisements
Track Severe Weather on mobile